This is the latest recevied weather packets stored in our database for station/object W4NRG-1. If no packets are shown the sender has not sent any weather packets the latest 10 day(s).
| Time | Temp. | Humidity | Pressure | Rain* | Wind** | Luminosity | Snow |
|---|---|---|---|---|---|---|---|
| 1777485217 | 17.78° C | 69% | 1013.2 hPa | 0 mm | - | - | - |
| 1777484913 | 17.78° C | 71% | 1012.9 hPa | 0 mm | - | - | - |
| 1777484611 | 17.78° C | 71% | 1013.2 hPa | 0 mm | - | - | - |
| 1777484307 | 17.78° C | 71% | 1013.2 hPa | 0 mm | - | - | - |
| 1777484002 | 17.22° C | 71% | 1013.3 hPa | 0 mm | - | - | - |
| 1777483700 | 17.22° C | 71% | 1013.3 hPa | 0 mm | - | - | - |
| 1777483395 | 17.22° C | 72% | 1013.6 hPa | 0 mm | - | - | - |
| 1777483090 | 17.22° C | 72% | 1013.8 hPa | 0 mm | - | - | - |
| 1777482788 | 17.22° C | 71% | 1013.7 hPa | 0 mm | - | - | - |
| 1777482483 | 17.22° C | 71% | 1013.9 hPa | 0 mm | - | - | - |
| 1777482181 | 17.78° C | 70% | 1014.1 hPa | 0 mm | - | - | - |
| 1777481879 | 17.78° C | 70% | 1014.1 hPa | 0 mm | - | - | - |
| 1777481576 | 17.78° C | 69% | 1014.3 hPa | 0 mm | - | - | - |
| 1777481273 | 18.33° C | 69% | 1014.3 hPa | 0 mm | - | - | - |
| 1777480969 | 17.78° C | 68% | 1014.6 hPa | 0 mm | - | - | - |
| 1777480666 | 18.33° C | 67% | 1014.4 hPa | 0 mm | - | - | - |
| 1777480363 | 18.33° C | 67% | 1014.5 hPa | 0 mm | - | - | - |
| 1777480058 | 18.33° C | 67% | 1014.2 hPa | 0 mm | - | - | - |
| 1777479755 | 18.33° C | 66% | 1014.3 hPa | 0 mm | - | - | - |
| 1777479453 | 18.89° C | 64% | 1014.3 hPa | 0 mm | - | - | - |
| 1777479149 | 18.33° C | 67% | 1014.3 hPa | 0 mm | - | - | - |
| 1777478846 | 18.33° C | 65% | 1014.3 hPa | 0 mm | - | - | - |
| 1777478542 | 18.89° C | 63% | 1014.4 hPa | 0 mm | - | - | - |
| 1777478240 | 19.44° C | 62% | 1014.6 hPa | 0 mm | - | - | - |
| 1777477936 | 18.89° C | 63% | 1014.8 hPa | 0 mm | - | - | - |
* Rain latest hour (hover to see other rain measurements)
** Current wind speed in m/s (hover to see current wind gust speed)